createdAt,value
2023-01-05T00:01:34.411Z,100457.50
2023-01-05T00:04:37.248Z,100459.16
2023-01-05T00:07:41.310Z,100445.66
2023-01-05T00:11:01.643Z,100462.81
2023-01-05T00:14:22.322Z,100460.88
2023-01-05T00:17:43.966Z,100461.84
2023-01-05T00:21:04.093Z,100467.72
2023-01-05T00:24:08.706Z,100454.09
2023-01-05T00:27:14.657Z,100458.69
2023-01-05T00:30:19.398Z,100440.81
2023-01-05T00:33:22.064Z,100438.69
2023-01-05T00:36:24.859Z,100437.63
2023-01-05T00:39:28.907Z,100435.84
2023-01-05T00:42:31.764Z,100424.84
2023-01-05T00:45:34.502Z,100416.78
2023-01-05T00:48:37.403Z,100416.78
2023-01-05T00:51:40.187Z,100421.34
2023-01-05T00:54:44.234Z,100423.94
2023-01-05T00:57:47.032Z,100420.28
2023-01-05T01:00:49.826Z,100402.94
2023-01-05T01:03:52.766Z,100411.94
2023-01-05T01:06:55.627Z,100413.78
2023-01-05T01:09:59.715Z,100395.38
2023-01-05T01:13:02.469Z,100396.13
2023-01-05T01:16:08.778Z,100387.81
2023-01-05T01:19:15.480Z,100379.59
2023-01-05T01:22:18.420Z,100369.84
2023-01-05T01:25:22.607Z,100369.00
2023-01-05T01:28:25.513Z,100350.50
2023-01-05T01:31:28.327Z,100381.56
2023-01-05T01:34:31.326Z,100383.56
2023-01-05T01:37:34.051Z,100379.84
2023-01-05T01:40:41.481Z,100382.31
2023-01-05T01:43:46.884Z,100377.19
2023-01-05T01:46:49.665Z,100399.16
2023-01-05T01:49:52.783Z,100409.88
2023-01-05T01:52:59.718Z,100400.94
2023-01-05T01:56:06.071Z,100408.25
2023-01-05T01:59:09.632Z,100413.75
2023-01-05T02:02:13.967Z,100406.66
2023-01-05T02:05:19.199Z,100403.28
2023-01-05T02:08:25.715Z,100392.59
2023-01-05T02:11:44.207Z,100396.47
2023-01-05T02:14:54.524Z,100392.72
2023-01-05T02:18:10.711Z,100397.19
2023-01-05T02:21:26.123Z,100390.75
2023-01-05T02:24:46.244Z,100374.84
2023-01-05T02:28:00.693Z,100406.97
2023-01-05T02:31:15.961Z,100381.88
2023-01-05T02:34:24.310Z,100413.19
2023-01-05T02:37:33.831Z,100406.97
2023-01-05T02:40:43.224Z,100418.78
2023-01-05T02:43:46.477Z,100396.84
2023-01-05T02:47:00.598Z,100416.84
2023-01-05T02:50:07.917Z,100406.66
2023-01-05T02:53:18.050Z,100415.91
2023-01-05T02:56:25.285Z,100407.09
2023-01-05T02:59:32.161Z,100388.91
2023-01-05T03:02:36.904Z,100423.81
2023-01-05T03:05:46.950Z,100421.84
2023-01-05T03:08:53.460Z,100432.03
2023-01-05T03:12:20.542Z,100435.84
2023-01-05T03:15:27.852Z,100395.97
2023-01-05T03:18:34.054Z,100422.22
2023-01-05T03:21:55.259Z,100429.47
2023-01-05T03:25:16.013Z,100428.59
2023-01-05T03:28:39.777Z,100429.59
2023-01-05T03:32:06.594Z,100409.44
2023-01-05T03:35:32.968Z,100426.31
2023-01-05T03:38:39.736Z,100439.19
2023-01-05T03:41:42.819Z,100439.47
2023-01-05T03:44:46.893Z,100437.72
2023-01-05T03:47:51.082Z,100433.41
2023-01-05T03:50:55.500Z,100436.94
2023-01-05T03:53:58.488Z,100431.63
2023-01-05T03:57:01.760Z,100428.09
2023-01-05T04:00:05.822Z,100438.25
2023-01-05T04:03:09.585Z,100418.47
2023-01-05T04:06:13.942Z,100431.34
2023-01-05T04:09:16.689Z,100439.50
2023-01-05T04:12:19.503Z,100436.16
2023-01-05T04:15:22.229Z,100433.53
2023-01-05T04:18:24.983Z,100441.91
2023-01-05T04:21:29.055Z,100468.41
2023-01-05T04:24:31.772Z,100478.38
2023-01-05T04:27:34.510Z,100480.28
2023-01-05T04:30:37.212Z,100494.13
2023-01-05T04:33:41.423Z,100482.03
2023-01-05T04:36:47.961Z,100488.28
2023-01-05T04:39:50.837Z,100474.25
2023-01-05T04:42:53.574Z,100500.81
2023-01-05T04:45:56.410Z,100505.34
2023-01-05T04:48:59.135Z,100514.34
2023-01-05T04:52:03.442Z,100522.09
2023-01-05T04:55:08.422Z,100519.38
2023-01-05T04:58:12.155Z,100518.50
2023-01-05T05:01:15.330Z,100528.31
2023-01-05T05:04:18.193Z,100538.91
2023-01-05T05:07:22.321Z,100539.03
2023-01-05T05:10:25.434Z,100530.94
2023-01-05T05:13:28.287Z,100530.44
2023-01-05T05:16:31.107Z,100526.63
2023-01-05T05:19:34.549Z,100525.81
2023-01-05T05:22:38.627Z,100525.81
2023-01-05T05:25:41.353Z,100545.88
2023-01-05T05:28:44.151Z,100546.88
2023-01-05T05:31:46.982Z,100542.19
2023-01-05T05:34:49.711Z,100546.94
2023-01-05T05:37:56.630Z,100559.47
2023-01-05T05:40:59.708Z,100540.47
2023-01-05T05:44:02.919Z,100548.44
2023-01-05T05:47:06.141Z,100551.16
2023-01-05T05:50:10.505Z,100549.53
2023-01-05T05:53:14.858Z,100533.94
2023-01-05T05:56:17.666Z,100564.13
2023-01-05T05:59:20.522Z,100557.34
2023-01-05T06:02:23.398Z,100557.09
2023-01-05T06:05:26.183Z,100571.72
2023-01-05T06:08:30.470Z,100563.78
2023-01-05T06:11:33.237Z,100570.22
2023-01-05T06:14:36.217Z,100563.03
2023-01-05T06:17:39.093Z,100571.34
2023-01-05T06:20:42.318Z,100583.25
2023-01-05T06:23:46.394Z,100559.56
2023-01-05T06:26:49.465Z,100580.03
2023-01-05T06:29:52.219Z,100584.66
2023-01-05T06:32:55.356Z,100582.06
2023-01-05T06:35:58.765Z,100586.59
2023-01-05T06:39:02.902Z,100591.00
2023-01-05T06:42:05.793Z,100587.34
2023-01-05T06:45:10.828Z,100599.06
2023-01-05T06:48:14.481Z,100598.19
2023-01-05T06:51:18.528Z,100604.50
2023-01-05T06:54:22.595Z,100597.31
2023-01-05T06:57:25.513Z,100598.09
2023-01-05T07:00:29.005Z,100607.94
2023-01-05T07:03:31.875Z,100613.34
2023-01-05T07:06:35.937Z,100610.03
2023-01-05T07:09:40.510Z,100626.16
2023-01-05T07:12:43.240Z,100619.72
2023-01-05T07:15:46.519Z,100619.84
2023-01-05T07:18:49.254Z,100609.81
2023-01-05T07:21:56.743Z,100619.84
2023-01-05T07:25:01.212Z,100629.88
2023-01-05T07:28:04.254Z,100638.00
2023-01-05T07:31:08.383Z,100640.75
2023-01-05T07:34:11.370Z,100643.50
2023-01-05T07:37:14.416Z,100641.63
2023-01-05T07:40:18.589Z,100640.94
2023-01-05T07:43:21.691Z,100656.75
2023-01-05T07:46:24.517Z,100654.97
2023-01-05T07:49:27.360Z,100660.41
2023-01-05T07:52:32.523Z,100634.13
2023-01-05T07:55:37.539Z,100661.44
2023-01-05T07:58:41.724Z,100661.19
2023-01-05T08:01:44.974Z,100671.06
2023-01-05T08:04:48.050Z,100672.69
2023-01-05T08:07:51.187Z,100677.19
2023-01-05T08:10:55.311Z,100672.69
2023-01-05T08:14:00.721Z,100678.06
2023-01-05T08:17:03.568Z,100681.06
2023-01-05T08:20:07.764Z,100700.91
2023-01-05T08:23:10.523Z,100699.00
2023-01-05T08:26:17.624Z,100703.38
2023-01-05T08:29:20.395Z,100701.41
2023-01-05T08:32:23.110Z,100720.09
2023-01-05T08:35:25.833Z,100712.75
2023-01-05T08:38:28.823Z,100730.66
2023-01-05T08:41:35.803Z,100724.03
2023-01-05T08:44:38.559Z,100735.81
2023-01-05T08:47:41.311Z,100732.78
2023-01-05T08:50:44.155Z,100722.97
2023-01-05T08:53:47.421Z,100730.59
2023-01-05T08:56:52.820Z,100727.63
2023-01-05T08:59:55.622Z,100726.53
2023-01-05T09:02:58.407Z,100729.06
2023-01-05T09:06:03.419Z,100736.94
2023-01-05T09:09:06.392Z,100741.19
2023-01-05T09:12:10.463Z,100737.00
2023-01-05T09:15:13.179Z,100746.44
2023-01-05T09:18:15.897Z,100745.16
2023-01-05T09:21:18.926Z,100702.56
2023-01-05T09:24:21.682Z,100731.03
2023-01-05T09:27:25.709Z,100734.75
2023-01-05T09:30:28.481Z,100738.47
2023-01-05T09:33:31.779Z,100737.44
2023-01-05T09:36:34.694Z,100725.09
2023-01-05T09:39:37.602Z,100737.19
2023-01-05T09:42:46.287Z,100750.41
2023-01-05T09:45:50.237Z,100751.84
2023-01-05T09:48:56.534Z,100753.31
2023-01-05T09:52:01.927Z,100758.28
2023-01-05T09:55:11.688Z,100755.22
2023-01-05T09:58:23.564Z,100716.28
2023-01-05T10:01:34.335Z,100756.47
2023-01-05T10:04:37.341Z,100776.13
2023-01-05T10:07:45.480Z,100759.53
2023-01-05T10:11:06.640Z,100762.13
2023-01-05T10:14:15.928Z,100754.88
2023-01-05T10:20:55.663Z,100764.44
2023-01-05T10:24:14.716Z,100769.41
2023-01-05T10:27:26.195Z,100757.00
2023-01-05T10:30:49.556Z,100767.63
2023-01-05T10:33:59.024Z,100758.53
2023-01-05T10:37:21.324Z,100764.09
2023-01-05T10:40:33.404Z,100760.03
2023-01-05T10:43:51.180Z,100766.00
2023-01-05T10:46:55.454Z,100780.41
2023-01-05T10:49:59.225Z,100773.84
2023-01-05T10:53:09.829Z,100779.47
2023-01-05T10:56:16.596Z,100771.22
2023-01-05T10:59:19.408Z,100781.06
2023-01-05T11:02:24.703Z,100768.59
2023-01-05T11:05:31.772Z,100769.47
2023-01-05T11:08:35.742Z,100771.38
2023-01-05T11:11:38.568Z,100776.81
2023-01-05T11:14:44.548Z,100777.53
2023-01-05T11:17:49.067Z,100774.63
2023-01-05T11:21:13.492Z,100768.94
2023-01-05T11:24:31.401Z,100770.66
2023-01-05T11:27:34.310Z,100773.38
2023-01-05T11:30:37.721Z,100771.72
2023-01-05T11:33:41.973Z,100773.56
2023-01-05T11:36:51.636Z,100773.50
2023-01-05T11:39:56.686Z,100777.84
2023-01-05T11:43:00.998Z,100777.25
2023-01-05T11:46:05.885Z,100771.97
2023-01-05T11:49:10.630Z,100780.22
2023-01-05T11:52:27.347Z,100783.50
2023-01-05T11:55:33.878Z,100779.91
2023-01-05T11:58:43.999Z,100788.00
2023-01-05T12:02:03.145Z,100786.97
2023-01-05T12:05:24.586Z,100795.03
2023-01-05T12:08:32.024Z,100757.56
2023-01-05T12:11:45.077Z,100794.75
2023-01-05T12:15:16.823Z,100794.97
2023-01-05T12:18:34.543Z,100775.97
2023-01-05T12:21:40.837Z,100776.03
2023-01-05T12:24:58.334Z,100763.09
2023-01-05T12:28:40.575Z,100768.25
2023-01-05T12:35:58.657Z,100762.78
2023-01-05T12:39:19.232Z,100754.81
2023-01-05T12:42:37.720Z,100756.91
2023-01-05T12:46:08.961Z,100759.69
2023-01-05T12:49:17.037Z,100764.53
2023-01-05T12:52:29.068Z,100761.03
2023-01-05T12:55:39.902Z,100758.72
2023-01-05T12:58:53.933Z,100766.06
2023-01-05T13:02:04.839Z,100757.69
2023-01-05T13:05:18.374Z,100780.91
2023-01-05T13:08:25.627Z,100767.97
2023-01-05T13:11:35.771Z,100781.50
2023-01-05T13:14:52.795Z,100786.38
2023-01-05T13:17:59.960Z,100786.00
2023-01-05T13:21:12.688Z,100779.16
2023-01-05T13:24:23.118Z,100789.59
2023-01-05T13:27:29.286Z,100781.38
2023-01-05T13:30:36.959Z,100792.81
2023-01-05T13:34:12.270Z,100798.63
2023-01-05T13:37:40.275Z,100798.56
2023-01-05T13:41:00.906Z,100804.28
2023-01-05T13:44:21.816Z,100790.63
2023-01-05T13:47:53.896Z,100791.16
2023-01-05T13:51:23.608Z,100800.31
2023-01-05T13:54:49.309Z,100808.72
2023-01-05T13:57:57.690Z,100801.50
2023-01-05T14:01:04.738Z,100803.81
2023-01-05T14:04:18.803Z,100800.75
2023-01-05T14:07:21.884Z,100805.28
2023-01-05T14:10:27.366Z,100807.19
2023-01-05T14:13:45.854Z,100805.75
2023-01-05T14:16:57.329Z,100814.16
2023-01-05T14:20:00.336Z,100810.69
2023-01-05T14:23:22.399Z,100758.31
2023-01-05T14:27:00.818Z,100817.28
2023-01-05T14:30:04.131Z,100763.41
2023-01-05T14:33:22.528Z,100796.31
2023-01-05T14:36:42.968Z,100817.84
2023-01-05T14:40:08.671Z,100779.09
2023-01-05T14:43:39.978Z,100665.91
2023-01-05T14:46:48.739Z,100842.28
2023-01-05T14:50:03.765Z,100856.03
2023-01-05T14:53:14.770Z,100859.13
2023-01-05T14:56:22.833Z,100877.44
2023-01-05T14:59:27.735Z,100868.63
2023-01-05T15:02:34.187Z,100872.53
2023-01-05T15:05:41.580Z,100883.38
2023-01-05T15:09:15.864Z,100881.97
2023-01-05T15:12:36.304Z,100885.13
2023-01-05T15:15:50.137Z,100867.69
2023-01-05T15:19:18.061Z,100892.94
2023-01-05T15:22:39.048Z,100901.25
2023-01-05T15:26:07.589Z,100908.84
2023-01-05T15:29:40.803Z,100904.88
2023-01-05T15:32:46.297Z,100914.34
2023-01-05T15:35:53.907Z,100881.91
2023-01-05T15:38:57.958Z,100916.75
2023-01-05T15:42:07.998Z,100923.97
2023-01-05T15:45:18.477Z,100909.72
2023-01-05T15:48:29.268Z,100893.56
2023-01-05T15:51:33.822Z,100931.69
2023-01-05T15:54:37.880Z,100923.41
2023-01-05T15:57:41.096Z,100922.44
2023-01-05T16:00:43.903Z,100928.63
2023-01-05T16:03:48.651Z,100925.84
2023-01-05T16:06:57.305Z,100921.19
2023-01-05T16:10:02.088Z,100928.34
2023-01-05T16:13:10.577Z,100931.69
2023-01-05T16:16:49.633Z,100923.53
2023-01-05T16:19:46.033Z,100926.13
2023-01-05T16:23:08.307Z,100917.00
2023-01-05T16:26:17.893Z,100914.19
2023-01-05T16:29:39.214Z,100920.41
2023-01-05T16:32:42.868Z,100915.88
2023-01-05T16:35:47.337Z,100909.81
2023-01-05T16:38:57.900Z,100923.94
2023-01-05T16:42:29.825Z,100923.06
2023-01-05T16:45:34.532Z,100923.91
2023-01-05T16:48:49.884Z,100923.00
2023-01-05T16:51:54.910Z,100911.16
2023-01-05T16:55:30.056Z,100926.66
2023-01-05T16:58:38.806Z,100914.88
2023-01-05T17:01:46.080Z,100919.34
2023-01-05T17:04:48.839Z,100926.59
2023-01-05T17:08:04.593Z,100911.22
2023-01-05T17:11:12.358Z,100911.47
2023-01-05T17:14:18.043Z,100915.91
2023-01-05T17:17:21.341Z,100913.22
2023-01-05T17:20:26.588Z,100915.13
2023-01-05T17:23:31.203Z,100912.47
2023-01-05T17:26:43.577Z,100913.34
2023-01-05T17:29:50.581Z,100912.31
2023-01-05T17:32:53.294Z,100914.00
2023-01-05T17:35:56.974Z,100914.00
2023-01-05T17:38:59.866Z,100918.53
2023-01-05T17:42:21.323Z,100919.41
2023-01-05T17:45:27.958Z,100923.94
2023-01-05T17:48:32.839Z,100923.94
2023-01-05T17:51:37.397Z,100927.50
2023-01-05T17:54:41.730Z,100921.03
2023-01-05T17:57:44.483Z,100916.41
2023-01-05T18:00:49.983Z,100917.38
2023-01-05T18:03:52.966Z,100914.63
2023-01-05T18:06:55.893Z,100914.63
2023-01-05T18:10:01.836Z,100917.28
2023-01-05T18:13:04.800Z,100919.00
2023-01-05T18:16:10.521Z,100916.34
2023-01-05T18:22:21.977Z,100921.72
2023-01-05T18:25:24.853Z,100917.91
2023-01-05T18:28:29.013Z,100914.28
2023-01-05T18:31:34.885Z,100919.75
2023-01-05T18:34:42.397Z,100923.34
2023-01-05T18:37:45.158Z,100914.38
2023-01-05T18:40:49.982Z,100911.75
2023-01-05T18:43:52.810Z,100909.09
2023-01-05T18:46:57.785Z,100917.34
2023-01-05T18:50:00.580Z,100867.72
2023-01-05T18:53:03.528Z,100919.06
2023-01-05T18:56:10.738Z,100917.28
2023-01-05T18:59:15.638Z,100928.19
2023-01-05T19:02:19.838Z,100924.47
2023-01-05T19:05:22.735Z,100923.59
2023-01-05T19:08:26.616Z,100929.19
2023-01-05T19:11:33.033Z,100920.19
2023-01-05T19:14:37.028Z,100927.34
2023-01-05T19:17:43.996Z,100918.34
2023-01-05T19:20:59.047Z,100925.72
2023-01-05T19:24:04.071Z,100921.19
2023-01-05T19:27:06.819Z,100923.06
2023-01-05T19:30:10.406Z,100920.41
2023-01-05T19:33:14.453Z,100916.81
2023-01-05T19:36:18.854Z,100926.75
2023-01-05T19:39:21.973Z,100921.44
2023-01-05T19:42:24.680Z,100932.19
2023-01-05T19:45:27.421Z,100932.09
2023-01-05T19:48:35.225Z,100926.66
2023-01-05T19:51:37.881Z,100910.19
2023-01-05T19:54:40.641Z,100920.34
2023-01-05T19:57:43.343Z,100914.81
2023-01-05T20:00:46.490Z,100927.59
2023-01-05T20:03:51.580Z,100914.88
2023-01-05T20:06:54.265Z,100912.22
2023-01-05T20:09:58.229Z,100911.22
2023-01-05T20:13:05.056Z,100905.03
2023-01-05T20:16:13.704Z,100920.28
2023-01-05T20:19:18.852Z,100921.34
2023-01-05T20:22:21.677Z,100924.00
2023-01-05T20:25:24.359Z,100914.97
2023-01-05T20:28:27.095Z,100930.38
2023-01-05T20:31:32.204Z,100932.91
2023-01-05T20:34:39.086Z,100921.59
2023-01-05T20:37:47.920Z,100920.53
2023-01-05T20:40:50.655Z,100918.78
2023-01-05T20:43:54.304Z,100917.84
2023-01-05T20:46:57.125Z,100921.75
2023-01-05T20:50:03.898Z,100925.38
2023-01-05T20:53:06.632Z,100919.00
2023-01-05T20:56:12.545Z,100919.00
2023-01-05T20:59:18.969Z,100930.72
2023-01-05T21:02:24.639Z,100922.66
2023-01-05T21:05:29.135Z,100921.78
2023-01-05T21:08:32.076Z,100924.59
2023-01-05T21:11:36.719Z,100923.81
2023-01-05T21:14:39.641Z,100914.78
2023-01-05T21:17:43.226Z,100914.88
2023-01-05T21:20:47.404Z,100914.00
2023-01-05T21:23:52.939Z,100911.00
2023-01-05T21:27:01.894Z,100914.66
2023-01-05T21:30:08.134Z,100918.19
2023-01-05T21:33:11.996Z,100919.09
2023-01-05T21:36:17.932Z,100915.22
2023-01-05T21:39:29.936Z,100917.78
2023-01-05T21:42:42.555Z,100915.06
2023-01-05T21:45:46.171Z,100909.56
2023-01-05T21:48:48.855Z,100904.00
2023-01-05T21:52:12.435Z,100901.34
2023-01-05T21:55:32.591Z,100911.00
2023-01-05T21:58:36.189Z,100910.78
2023-01-05T22:01:39.821Z,100903.53
2023-01-05T22:04:42.858Z,100903.44
2023-01-05T22:07:46.871Z,100910.69
2023-01-05T22:10:55.774Z,100896.03
2023-01-05T22:13:58.508Z,100891.41
2023-01-05T22:17:05.566Z,100894.16
2023-01-05T22:20:09.462Z,100888.63
2023-01-05T22:23:14.508Z,100873.72
2023-01-05T22:26:21.544Z,100894.00
2023-01-05T22:29:24.414Z,100885.63
2023-01-05T22:32:27.159Z,100885.09
2023-01-05T22:35:30.115Z,100875.50
2023-01-05T22:38:35.843Z,100882.56
2023-01-05T22:41:38.602Z,100878.56
2023-01-05T22:44:41.747Z,100875.34
2023-01-05T22:47:44.471Z,100873.38
2023-01-05T22:50:47.794Z,100879.00
2023-01-05T22:53:52.671Z,100879.69
2023-01-05T22:56:55.700Z,100880.78
2023-01-05T22:59:58.449Z,100872.56
2023-01-05T23:03:01.886Z,100880.78
2023-01-05T23:06:04.760Z,100877.94
2023-01-05T23:09:14.292Z,100877.94
2023-01-05T23:12:22.748Z,100878.75
2023-01-05T23:15:25.924Z,100873.22
2023-01-05T23:18:29.608Z,100873.94
2023-01-05T23:21:35.189Z,100863.97
2023-01-05T23:24:45.536Z,100862.06
2023-01-05T23:27:48.232Z,100856.41
2023-01-05T23:30:52.713Z,100853.53
2023-01-05T23:33:58.980Z,100844.38
2023-01-05T23:37:02.837Z,100847.91
2023-01-05T23:40:08.490Z,100839.69
2023-01-05T23:43:12.530Z,100853.19
2023-01-05T23:46:22.990Z,100843.22
2023-01-05T23:49:25.728Z,100846.66
2023-01-05T23:52:28.435Z,100831.13
2023-01-05T23:55:36.193Z,100830.53
2023-01-05T23:58:39.745Z,100831.13
